Airfield :
LOGIN :

Register | Disclaimer

   EN    FR    IT 

 










Legend :    VFR   Marginal VFR   IFR   Intensive IFR   Very Intensive IFR
Visi :
Ceiling :
>= 8 km
>= 3000ft
5 to 8 km
1000 to 3000 ft
1500m to 5 km
500 to 1000 ft
800 to 1500m
200 to 500 ft
< 800m
< 200 ft
Symbols :   Thunderstorms  Fog  Heavy snow  Heavy precipitations  Wind > 20 kt
SIGMETs :     Misc.  Thunderstorms  Icing  Turbulence  Mountain Waves  Volcanic Ashes







- Airport Elevation : 37 ft
- IATA code : OLB


LIEO - Olbia Costa Smeralda

CURRENT METAR :
  • 100220Z 29020G32KT CAVOK 15/06 Q1017

EXPIRED METARs :
  • 100150Z 29018KT 260V320 CAVOK 15/06 Q1017
  • 100120Z 29023G38KT CAVOK 15/06 Q1017
  • 100050Z 29027G39KT CAVOK 15/06 Q1017
  • 100020Z 29020G31KT CAVOK 15/06 Q1017
  • 092350Z 28023G35KT CAVOK 15/05 Q1016
  • 092320Z 28023G35KT 250V310 CAVOK 15/05 Q1017

TAF TAF LIEO
Valid from the 10 at 00:00 until the 11 at 00:00 UTC


092300Z 1000/1024 25030G40KT 9999 SCT030
BECMG 1017/1019 30012KT
No reported NOTAMs for that airfield.
6 SIGMETs reported for the Roma FIR (LIRR) :
 
Severe turbulence
LIRR SIGMET 3 VALID 100230/100530 LIIB
LIRR ROMA FIR SEV TURB FCST WI N4254 E01034 - N4104 E01222 - N3909 E01532 - N3830 E01718 - N3711 E01615 - N3847 E01149 - N4012 E01015 - N4212 E01001 - N4254 E01034 FL140/300 MOV SE NC=
Severe mountain waves
LIRR SIGMET 2 VALID 100230/100530 LIIB
LIRR ROMA FIR SEV MTW FCST WI N3851 E01631 - N3744 E01510 - N3714 E01616 - N3840 E01745 - N3851 E01631 SFC/FL140 STNR NC=
Severe turbulence
LIRR SIGMET 14 VALID 092338/100230 LIIB
LIRR ROMA FIR SEV TURB FCST WI N4311 E01048 - N4104 E01223 - N4124 E01424 - N4112 E01504 - N3922 E01606 - N3752 E01409 - N3744 E01142 - N3916 E00904 - N4052 E00856 - N4104 E00941 - N4221 E00947 - N4311 E01048 FL240/400 MOV SE NC=
Severe mountain waves
LIRR SIGMET 13 VALID 092333/100230 LIIB
LIRR ROMA FIR SEV MTW FCST WI N3851 E01631 - N3744 E01510 - N3714 E01616 - N3840 E01745 - N3851 E01631 SFC/FL140 STNR NC=
Severe turbulence
LIRR SIGMET 12 VALID 092332/100230 LIIB
LIRR ROMA FIR SEV TURB FCST WI N4105 E00807 - N4118 E00836 - N4102 E01059 - N3828 E01020 - N3902 E00813 - N4105 E00807 SFC/FL140 STNR NC=
Severe turbulence
LIRR SIGMET 1 VALID 100230/100530 LIIB
LIRR ROMA FIR SEV TURB FCST WI N4104 E00807 - N4118 E00836 - N4112 E00941 - N4146 E00953 - N4101 E01052 - N3951 E01107 - N3832 E01242 - N3719 E01234 - N3901 E00813 - N4104 E00807 SFC/FL140 STNR NC=



MET'MAP, your aeronautical weather chart ! - Copyright ORBIFLY December 2007 - Disclaimer

ORBIFLY MET'MAP TEAM :

Programming & Development : Alexandra Zaïnal
Concept & Development : Baudouin d'Aumeries
Co-Development & Prog : Marc-Olivier Méhu
Technical & hardware support : Manuel Goepfert

Contact : metmap@orbifly.com




SOURCES & CREDITS :

   NOAA